sensor_id;sensor_type;location;lat;lon;timestamp;P1;durP1;ratioP1;P2;durP2;ratioP2
56720;SDS011;53183;47.412;18.884;2023-01-15T00:00:46;73.55;;;16.65;;
56720;SDS011;53183;47.412;18.884;2023-01-15T00:03:35;60.05;;;15.32;;
56720;SDS011;53183;47.412;18.884;2023-01-15T00:06:15;134.00;;;18.35;;
56720;SDS011;53183;47.412;18.884;2023-01-15T00:08:54;84.60;;;18.12;;
56720;SDS011;53183;47.412;18.884;2023-01-15T00:11:31;63.08;;;16.92;;
56720;SDS011;53183;47.412;18.884;2023-01-15T00:14:01;190.05;;;20.20;;
56720;SDS011;53183;47.412;18.884;2023-01-15T00:19:19;81.03;;;15.88;;
56720;SDS011;53183;47.412;18.884;2023-01-15T00:21:50;120.15;;;19.45;;
56720;SDS011;53183;47.412;18.884;2023-01-15T00:24:27;71.15;;;16.10;;
56720;SDS011;53183;47.412;18.884;2023-01-15T00:27:16;83.12;;;14.25;;
56720;SDS011;53183;47.412;18.884;2023-01-15T00:30:12;34.15;;;13.88;;
56720;SDS011;53183;47.412;18.884;2023-01-15T00:32:48;102.70;;;17.10;;
56720;SDS011;53183;47.412;18.884;2023-01-15T00:35:31;45.58;;;13.77;;
56720;SDS011;53183;47.412;18.884;2023-01-15T00:38:07;106.05;;;17.95;;
56720;SDS011;53183;47.412;18.884;2023-01-15T00:40:44;35.72;;;16.48;;
56720;SDS011;53183;47.412;18.884;2023-01-15T00:43:24;39.47;;;13.25;;
56720;SDS011;53183;47.412;18.884;2023-01-15T00:46:02;31.42;;;13.27;;
56720;SDS011;53183;47.412;18.884;2023-01-15T00:51:07;32.50;;;13.70;;
56720;SDS011;53183;47.412;18.884;2023-01-15T00:53:42;45.83;;;13.90;;
56720;SDS011;53183;47.412;18.884;2023-01-15T00:56:18;38.40;;;13.60;;
56720;SDS011;53183;47.412;18.884;2023-01-15T00:58:55;64.95;;;13.70;;
56720;SDS011;53183;47.412;18.884;2023-01-15T01:01:37;46.85;;;13.38;;
56720;SDS011;53183;47.412;18.884;2023-01-15T01:04:15;55.55;;;12.98;;
56720;SDS011;53183;47.412;18.884;2023-01-15T01:06:57;39.05;;;12.52;;
56720;SDS011;53183;47.412;18.884;2023-01-15T01:09:30;35.90;;;12.90;;
56720;SDS011;53183;47.412;18.884;2023-01-15T01:12:12;29.95;;;12.93;;
56720;SDS011;53183;47.412;18.884;2023-01-15T01:14:44;94.05;;;12.90;;
56720;SDS011;53183;47.412;18.884;2023-01-15T01:17:22;57.55;;;12.82;;
56720;SDS011;53183;47.412;18.884;2023-01-15T01:20:02;37.10;;;12.63;;
56720;SDS011;53183;47.412;18.884;2023-01-15T01:22:49;111.72;;;13.82;;
56720;SDS011;53183;47.412;18.884;2023-01-15T01:25:29;50.20;;;11.57;;
56720;SDS011;53183;47.412;18.884;2023-01-15T01:28:04;59.47;;;11.90;;
56720;SDS011;53183;47.412;18.884;2023-01-15T01:30:46;38.78;;;10.20;;
56720;SDS011;53183;47.412;18.884;2023-01-15T01:33:26;39.65;;;10.18;;
56720;SDS011;53183;47.412;18.884;2023-01-15T01:36:06;26.08;;;10.77;;
56720;SDS011;53183;47.412;18.884;2023-01-15T01:38:49;63.45;;;10.63;;
56720;SDS011;53183;47.412;18.884;2023-01-15T01:41:24;27.00;;;9.80;;
56720;SDS011;53183;47.412;18.884;2023-01-15T01:44:57;36.20;;;10.60;;
56720;SDS011;53183;47.412;18.884;2023-01-15T01:47:14;60.22;;;11.23;;
56720;SDS011;53183;47.412;18.884;2023-01-15T01:50:01;46.53;;;10.52;;
56720;SDS011;53183;47.412;18.884;2023-01-15T01:52:45;31.92;;;9.70;;
56720;SDS011;53183;47.412;18.884;2023-01-15T01:55:33;84.62;;;10.57;;
56720;SDS011;53183;47.412;18.884;2023-01-15T01:58:12;93.78;;;12.45;;
56720;SDS011;53183;47.412;18.884;2023-01-15T02:00:54;58.92;;;11.55;;
56720;SDS011;53183;47.412;18.884;2023-01-15T02:03:42;63.45;;;11.63;;
56720;SDS011;53183;47.412;18.884;2023-01-15T02:06:19;28.95;;;7.72;;
56720;SDS011;53183;47.412;18.884;2023-01-15T02:09:10;32.63;;;8.57;;
56720;SDS011;53183;47.412;18.884;2023-01-15T02:11:46;81.20;;;10.25;;
56720;SDS011;53183;47.412;18.884;2023-01-15T02:14:41;32.30;;;8.77;;
56720;SDS011;53183;47.412;18.884;2023-01-15T02:17:54;66.82;;;9.73;;
56720;SDS011;53183;47.412;18.884;2023-01-15T02:20:53;64.93;;;10.13;;
56720;SDS011;53183;47.412;18.884;2023-01-15T02:33:19;33.67;;;9.82;;
56720;SDS011;53183;47.412;18.884;2023-01-15T02:36:00;96.70;;;10.98;;
56720;SDS011;53183;47.412;18.884;2023-01-15T02:38:47;126.87;;;12.45;;
56720;SDS011;53183;47.412;18.884;2023-01-15T02:41:32;20.92;;;7.70;;
56720;SDS011;53183;47.412;18.884;2023-01-15T02:44:13;73.28;;;10.32;;
56720;SDS011;53183;47.412;18.884;2023-01-15T02:46:55;61.03;;;10.68;;
56720;SDS011;53183;47.412;18.884;2023-01-15T02:49:42;41.17;;;9.70;;
56720;SDS011;53183;47.412;18.884;2023-01-15T02:52:32;70.12;;;10.85;;
56720;SDS011;53183;47.412;18.884;2023-01-15T02:55:20;45.05;;;9.95;;
56720;SDS011;53183;47.412;18.884;2023-01-15T02:57:59;17.70;;;7.93;;
56720;SDS011;53183;47.412;18.884;2023-01-15T03:00:44;35.83;;;9.80;;
56720;SDS011;53183;47.412;18.884;2023-01-15T03:03:31;25.12;;;10.10;;
56720;SDS011;53183;47.412;18.884;2023-01-15T03:06:24;73.75;;;10.10;;
56720;SDS011;53183;47.412;18.884;2023-01-15T03:09:11;49.25;;;9.27;;
56720;SDS011;53183;47.412;18.884;2023-01-15T03:12:06;47.05;;;10.00;;
56720;SDS011;53183;47.412;18.884;2023-01-15T03:18:14;21.25;;;8.38;;
56720;SDS011;53183;47.412;18.884;2023-01-15T03:21:02;78.53;;;11.38;;
56720;SDS011;53183;47.412;18.884;2023-01-15T03:23:48;56.75;;;10.95;;
56720;SDS011;53183;47.412;18.884;2023-01-15T03:26:26;67.50;;;10.32;;
56720;SDS011;53183;47.412;18.884;2023-01-15T03:28:57;104.85;;;12.00;;
56720;SDS011;53183;47.412;18.884;2023-01-15T03:31:30;88.70;;;11.30;;
56720;SDS011;53183;47.412;18.884;2023-01-15T03:34:10;142.15;;;14.52;;
56720;SDS011;53183;47.412;18.884;2023-01-15T03:36:46;81.53;;;10.57;;
56720;SDS011;53183;47.412;18.884;2023-01-15T03:39:26;90.85;;;11.93;;
56720;SDS011;53183;47.412;18.884;2023-01-15T03:45:14;85.90;;;11.20;;
56720;SDS011;53183;47.412;18.884;2023-01-15T03:48:10;100.05;;;11.70;;
56720;SDS011;53183;47.412;18.884;2023-01-15T03:53:56;39.90;;;9.23;;
56720;SDS011;53183;47.412;18.884;2023-01-15T03:59:41;38.05;;;9.68;;
56720;SDS011;53183;47.412;18.884;2023-01-15T04:02:30;76.15;;;9.57;;
56720;SDS011;53183;47.412;18.884;2023-01-15T04:05:17;109.57;;;12.10;;
56720;SDS011;53183;47.412;18.884;2023-01-15T04:07:57;29.02;;;9.60;;
56720;SDS011;53183;47.412;18.884;2023-01-15T04:10:58;37.88;;;9.73;;
56720;SDS011;53183;47.412;18.884;2023-01-15T04:13:38;54.20;;;10.18;;
56720;SDS011;53183;47.412;18.884;2023-01-15T04:16:26;33.28;;;8.70;;
56720;SDS011;53183;47.412;18.884;2023-01-15T04:19:01;46.22;;;9.02;;
56720;SDS011;53183;47.412;18.884;2023-01-15T04:21:45;12.55;;;7.50;;
56720;SDS011;53183;47.412;18.884;2023-01-15T04:24:30;38.55;;;9.73;;
56720;SDS011;53183;47.412;18.884;2023-01-15T04:27:03;40.20;;;10.18;;
56720;SDS011;53183;47.412;18.884;2023-01-15T04:29:45;83.90;;;10.52;;
56720;SDS011;53183;47.412;18.884;2023-01-15T04:32:21;100.65;;;12.50;;
56720;SDS011;53183;47.412;18.884;2023-01-15T04:34:52;64.78;;;9.43;;
56720;SDS011;53183;47.412;18.884;2023-01-15T04:37:26;35.20;;;9.48;;
56720;SDS011;53183;47.412;18.884;2023-01-15T04:39:58;63.90;;;9.95;;
56720;SDS011;53183;47.412;18.884;2023-01-15T04:42:56;63.13;;;10.60;;
56720;SDS011;53183;47.412;18.884;2023-01-15T04:45:47;34.63;;;10.00;;
56720;SDS011;53183;47.412;18.884;2023-01-15T04:48:25;25.58;;;9.60;;
56720;SDS011;53183;47.412;18.884;2023-01-15T04:51:02;52.47;;;9.55;;
56720;SDS011;53183;47.412;18.884;2023-01-15T04:53:35;49.60;;;9.63;;
56720;SDS011;53183;47.412;18.884;2023-01-15T04:56:14;40.80;;;7.95;;
56720;SDS011;53183;47.412;18.884;2023-01-15T04:58:53;60.05;;;8.60;;
56720;SDS011;53183;47.412;18.884;2023-01-15T05:01:29;35.35;;;8.90;;
56720;SDS011;53183;47.412;18.884;2023-01-15T05:04:02;42.85;;;8.50;;
56720;SDS011;53183;47.412;18.884;2023-01-15T05:06:38;48.30;;;8.73;;
56720;SDS011;53183;47.412;18.884;2023-01-15T05:09:12;72.72;;;9.43;;
56720;SDS011;53183;47.412;18.884;2023-01-15T05:11:48;43.47;;;8.63;;
56720;SDS011;53183;47.412;18.884;2023-01-15T05:14:32;85.80;;;9.25;;
56720;SDS011;53183;47.412;18.884;2023-01-15T05:17:13;81.72;;;9.35;;
56720;SDS011;53183;47.412;18.884;2023-01-15T05:19:49;61.97;;;9.40;;
56720;SDS011;53183;47.412;18.884;2023-01-15T05:22:33;39.30;;;8.27;;
56720;SDS011;53183;47.412;18.884;2023-01-15T05:25:14;57.15;;;9.73;;
56720;SDS011;53183;47.412;18.884;2023-01-15T05:27:45;51.05;;;9.38;;
56720;SDS011;53183;47.412;18.884;2023-01-15T05:30:16;27.50;;;9.00;;
56720;SDS011;53183;47.412;18.884;2023-01-15T05:32:55;56.45;;;8.68;;
56720;SDS011;53183;47.412;18.884;2023-01-15T05:35:27;43.87;;;8.35;;
56720;SDS011;53183;47.412;18.884;2023-01-15T05:37:59;26.95;;;7.70;;
56720;SDS011;53183;47.412;18.884;2023-01-15T05:40:37;29.55;;;8.55;;
56720;SDS011;53183;47.412;18.884;2023-01-15T05:43:14;47.28;;;8.23;;
56720;SDS011;53183;47.412;18.884;2023-01-15T05:45:44;48.15;;;8.93;;
56720;SDS011;53183;47.412;18.884;2023-01-15T05:48:15;43.92;;;7.60;;
56720;SDS011;53183;47.412;18.884;2023-01-15T05:51:00;56.08;;;9.27;;
56720;SDS011;53183;47.412;18.884;2023-01-15T05:53:43;59.97;;;8.60;;
56720;SDS011;53183;47.412;18.884;2023-01-15T05:56:22;24.55;;;8.13;;
56720;SDS011;53183;47.412;18.884;2023-01-15T05:58:57;40.85;;;8.23;;
56720;SDS011;53183;47.412;18.884;2023-01-15T06:01:40;45.12;;;9.40;;
56720;SDS011;53183;47.412;18.884;2023-01-15T06:04:13;101.97;;;9.77;;
56720;SDS011;53183;47.412;18.884;2023-01-15T06:06:47;95.53;;;10.13;;
56720;SDS011;53183;47.412;18.884;2023-01-15T06:09:28;48.08;;;9.10;;
56720;SDS011;53183;47.412;18.884;2023-01-15T06:12:10;92.62;;;10.90;;
56720;SDS011;53183;47.412;18.884;2023-01-15T06:14:52;72.18;;;9.25;;
56720;SDS011;53183;47.412;18.884;2023-01-15T06:17:26;81.75;;;12.95;;
56720;SDS011;53183;47.412;18.884;2023-01-15T06:20:02;24.55;;;8.43;;
56720;SDS011;53183;47.412;18.884;2023-01-15T06:22:34;29.02;;;8.07;;
56720;SDS011;53183;47.412;18.884;2023-01-15T06:25:13;88.55;;;9.30;;
56720;SDS011;53183;47.412;18.884;2023-01-15T06:27:55;92.85;;;12.15;;
56720;SDS011;53183;47.412;18.884;2023-01-15T06:30:28;43.87;;;8.73;;
56720;SDS011;53183;47.412;18.884;2023-01-15T06:33:00;119.55;;;10.95;;
56720;SDS011;53183;47.412;18.884;2023-01-15T06:35:37;56.17;;;10.90;;
56720;SDS011;53183;47.412;18.884;2023-01-15T06:38:07;79.03;;;9.38;;
56720;SDS011;53183;47.412;18.884;2023-01-15T06:40:49;49.85;;;10.82;;
56720;SDS011;53183;47.412;18.884;2023-01-15T06:43:25;48.13;;;10.07;;
56720;SDS011;53183;47.412;18.884;2023-01-15T06:46:14;88.85;;;11.43;;
56720;SDS011;53183;47.412;18.884;2023-01-15T06:49:07;68.47;;;10.25;;
56720;SDS011;53183;47.412;18.884;2023-01-15T06:51:44;70.68;;;12.00;;
56720;SDS011;53183;47.412;18.884;2023-01-15T06:54:19;73.18;;;12.10;;
56720;SDS011;53183;47.412;18.884;2023-01-15T06:56:52;126.60;;;13.07;;
56720;SDS011;53183;47.412;18.884;2023-01-15T06:59:22;45.47;;;12.05;;
56720;SDS011;53183;47.412;18.884;2023-01-15T07:02:00;54.17;;;11.73;;
56720;SDS011;53183;47.412;18.884;2023-01-15T07:04:42;43.72;;;13.00;;
56720;SDS011;53183;47.412;18.884;2023-01-15T07:07:18;86.18;;;11.85;;
56720;SDS011;53183;47.412;18.884;2023-01-15T07:09:52;42.15;;;12.10;;
56720;SDS011;53183;47.412;18.884;2023-01-15T07:12:23;27.30;;;10.52;;
56720;SDS011;53183;47.412;18.884;2023-01-15T07:14:59;54.63;;;12.15;;
56720;SDS011;53183;47.412;18.884;2023-01-15T07:17:41;61.17;;;13.50;;
56720;SDS011;53183;47.412;18.884;2023-01-15T07:20:15;25.25;;;12.07;;
56720;SDS011;53183;47.412;18.884;2023-01-15T07:22:56;84.28;;;14.43;;
56720;SDS011;53183;47.412;18.884;2023-01-15T07:25:34;55.30;;;12.55;;
56720;SDS011;53183;47.412;18.884;2023-01-15T07:28:20;36.58;;;12.20;;
56720;SDS011;53183;47.412;18.884;2023-01-15T07:30:59;33.13;;;12.18;;
56720;SDS011;53183;47.412;18.884;2023-01-15T07:33:29;27.60;;;12.65;;
56720;SDS011;53183;47.412;18.884;2023-01-15T07:36:03;25.62;;;11.48;;
56720;SDS011;53183;47.412;18.884;2023-01-15T07:38:40;24.63;;;12.45;;
56720;SDS011;53183;47.412;18.884;2023-01-15T07:41:15;26.62;;;12.35;;
56720;SDS011;53183;47.412;18.884;2023-01-15T07:44:03;24.58;;;11.68;;
56720;SDS011;53183;47.412;18.884;2023-01-15T07:47:01;33.80;;;14.13;;
56720;SDS011;53183;47.412;18.884;2023-01-15T07:49:56;40.67;;;13.43;;
56720;SDS011;53183;47.412;18.884;2023-01-15T07:52:31;31.80;;;13.60;;
56720;SDS011;53183;47.412;18.884;2023-01-15T07:55:07;37.53;;;15.80;;
56720;SDS011;53183;47.412;18.884;2023-01-15T07:57:43;41.20;;;13.50;;
56720;SDS011;53183;47.412;18.884;2023-01-15T08:00:15;32.70;;;14.20;;
56720;SDS011;53183;47.412;18.884;2023-01-15T08:02:51;30.33;;;13.85;;
56720;SDS011;53183;47.412;18.884;2023-01-15T08:05:25;35.15;;;15.85;;
56720;SDS011;53183;47.412;18.884;2023-01-15T08:07:58;32.15;;;13.85;;
56720;SDS011;53183;47.412;18.884;2023-01-15T08:10:40;30.33;;;12.90;;
56720;SDS011;53183;47.412;18.884;2023-01-15T08:13:37;25.17;;;12.48;;
56720;SDS011;53183;47.412;18.884;2023-01-15T08:16:27;28.98;;;14.30;;
56720;SDS011;53183;47.412;18.884;2023-01-15T08:19:01;31.98;;;14.35;;
56720;SDS011;53183;47.412;18.884;2023-01-15T08:21:35;32.20;;;15.18;;
56720;SDS011;53183;47.412;18.884;2023-01-15T08:24:12;31.05;;;14.25;;
56720;SDS011;53183;47.412;18.884;2023-01-15T08:26:47;38.63;;;17.30;;
56720;SDS011;53183;47.412;18.884;2023-01-15T08:29:32;39.40;;;16.35;;
56720;SDS011;53183;47.412;18.884;2023-01-15T08:32:09;41.85;;;17.95;;
56720;SDS011;53183;47.412;18.884;2023-01-15T08:34:47;40.40;;;19.12;;
56720;SDS011;53183;47.412;18.884;2023-01-15T08:37:24;35.33;;;15.85;;
56720;SDS011;53183;47.412;18.884;2023-01-15T08:40:11;30.70;;;15.13;;
56720;SDS011;53183;47.412;18.884;2023-01-15T08:42:47;29.80;;;15.23;;
56720;SDS011;53183;47.412;18.884;2023-01-15T08:45:30;35.95;;;15.48;;
56720;SDS011;53183;47.412;18.884;2023-01-15T08:48:06;38.28;;;18.00;;
56720;SDS011;53183;47.412;18.884;2023-01-15T08:50:43;34.00;;;16.80;;
56720;SDS011;53183;47.412;18.884;2023-01-15T08:53:30;40.47;;;18.15;;
56720;SDS011;53183;47.412;18.884;2023-01-15T08:56:14;32.38;;;16.08;;
56720;SDS011;53183;47.412;18.884;2023-01-15T08:58:51;35.63;;;16.15;;
56720;SDS011;53183;47.412;18.884;2023-01-15T09:01:30;39.80;;;18.65;;
56720;SDS011;53183;47.412;18.884;2023-01-15T09:04:14;32.17;;;16.58;;
56720;SDS011;53183;47.412;18.884;2023-01-15T09:06:53;34.05;;;17.23;;
56720;SDS011;53183;47.412;18.884;2023-01-15T09:09:23;30.65;;;16.30;;
56720;SDS011;53183;47.412;18.884;2023-01-15T09:12:03;30.17;;;15.68;;
56720;SDS011;53183;47.412;18.884;2023-01-15T09:14:35;31.70;;;16.25;;
56720;SDS011;53183;47.412;18.884;2023-01-15T09:17:30;35.20;;;15.13;;
56720;SDS011;53183;47.412;18.884;2023-01-15T09:20:10;31.50;;;14.98;;
56720;SDS011;53183;47.412;18.884;2023-01-15T09:22:56;30.15;;;14.05;;
56720;SDS011;53183;47.412;18.884;2023-01-15T09:25:32;30.65;;;13.73;;
56720;SDS011;53183;47.412;18.884;2023-01-15T09:28:14;29.70;;;14.70;;
56720;SDS011;53183;47.412;18.884;2023-01-15T09:30:45;26.05;;;14.30;;
56720;SDS011;53183;47.412;18.884;2023-01-15T09:33:18;23.80;;;13.82;;
56720;SDS011;53183;47.412;18.884;2023-01-15T09:35:55;27.50;;;14.68;;
56720;SDS011;53183;47.412;18.884;2023-01-15T09:38:32;30.90;;;14.60;;
56720;SDS011;53183;47.412;18.884;2023-01-15T09:41:14;25.05;;;14.07;;
56720;SDS011;53183;47.412;18.884;2023-01-15T09:44:28;23.80;;;13.20;;
56720;SDS011;53183;47.412;18.884;2023-01-15T09:47:28;26.23;;;12.50;;
56720;SDS011;53183;47.412;18.884;2023-01-15T09:50:23;29.12;;;13.93;;
56720;SDS011;53183;47.412;18.884;2023-01-15T09:53:16;23.58;;;12.50;;
56720;SDS011;53183;47.412;18.884;2023-01-15T09:56:20;27.55;;;12.73;;
56720;SDS011;53183;47.412;18.884;2023-01-15T09:58:58;30.30;;;13.02;;
56720;SDS011;53183;47.412;18.884;2023-01-15T10:01:47;29.40;;;15.15;;
56720;SDS011;53183;47.412;18.884;2023-01-15T10:04:35;29.73;;;13.93;;
56720;SDS011;53183;47.412;18.884;2023-01-15T10:10:26;25.65;;;10.93;;
56720;SDS011;53183;47.412;18.884;2023-01-15T10:13:26;24.30;;;11.40;;
56720;SDS011;53183;47.412;18.884;2023-01-15T10:16:23;24.20;;;11.75;;
56720;SDS011;53183;47.412;18.884;2023-01-15T10:19:02;21.15;;;11.55;;
56720;SDS011;53183;47.412;18.884;2023-01-15T10:21:38;22.60;;;10.85;;
56720;SDS011;53183;47.412;18.884;2023-01-15T10:24:41;24.48;;;11.23;;
56720;SDS011;53183;47.412;18.884;2023-01-15T10:27:27;19.65;;;10.55;;
56720;SDS011;53183;47.412;18.884;2023-01-15T10:30:10;20.05;;;10.85;;
56720;SDS011;53183;47.412;18.884;2023-01-15T10:36:06;18.98;;;9.43;;
56720;SDS011;53183;47.412;18.884;2023-01-15T10:45:19;21.73;;;10.38;;
56720;SDS011;53183;47.412;18.884;2023-01-15T10:48:03;17.55;;;9.00;;
56720;SDS011;53183;47.412;18.884;2023-01-15T10:50:47;18.23;;;8.93;;
56720;SDS011;53183;47.412;18.884;2023-01-15T10:53:34;15.13;;;8.75;;
56720;SDS011;53183;47.412;18.884;2023-01-15T10:56:36;20.02;;;10.23;;
56720;SDS011;53183;47.412;18.884;2023-01-15T10:59:16;17.67;;;9.30;;
56720;SDS011;53183;47.412;18.884;2023-01-15T11:05:15;15.27;;;9.18;;
56720;SDS011;53183;47.412;18.884;2023-01-15T11:07:56;17.62;;;9.60;;
56720;SDS011;53183;47.412;18.884;2023-01-15T11:14:42;20.05;;;10.75;;
56720;SDS011;53183;47.412;18.884;2023-01-15T11:17:44;21.83;;;8.68;;
56720;SDS011;53183;47.412;18.884;2023-01-15T11:20:44;17.92;;;10.18;;
56720;SDS011;53183;47.412;18.884;2023-01-15T11:23:19;20.27;;;9.20;;
56720;SDS011;53183;47.412;18.884;2023-01-15T11:25:58;20.10;;;9.10;;
56720;SDS011;53183;47.412;18.884;2023-01-15T11:28:39;13.20;;;8.23;;
56720;SDS011;53183;47.412;18.884;2023-01-15T11:31:14;17.70;;;9.38;;
56720;SDS011;53183;47.412;18.884;2023-01-15T11:34:00;17.02;;;9.45;;
56720;SDS011;53183;47.412;18.884;2023-01-15T11:36:40;15.07;;;8.82;;
56720;SDS011;53183;47.412;18.884;2023-01-15T11:42:01;14.90;;;7.53;;
56720;SDS011;53183;47.412;18.884;2023-01-15T11:45:00;18.62;;;9.18;;
56720;SDS011;53183;47.412;18.884;2023-01-15T11:47:52;19.08;;;8.65;;
56720;SDS011;53183;47.412;18.884;2023-01-15T11:50:53;18.95;;;9.68;;
56720;SDS011;53183;47.412;18.884;2023-01-15T11:53:48;19.77;;;9.35;;
56720;SDS011;53183;47.412;18.884;2023-01-15T11:56:25;18.35;;;9.48;;
56720;SDS011;53183;47.412;18.884;2023-01-15T11:59:03;19.48;;;9.30;;
56720;SDS011;53183;47.412;18.884;2023-01-15T12:04:41;14.95;;;8.13;;
56720;SDS011;53183;47.412;18.884;2023-01-15T12:07:25;20.83;;;10.35;;
56720;SDS011;53183;47.412;18.884;2023-01-15T12:10:29;16.87;;;9.90;;
56720;SDS011;53183;47.412;18.884;2023-01-15T12:20:04;22.85;;;10.88;;
56720;SDS011;53183;47.412;18.884;2023-01-15T12:26:12;14.13;;;8.80;;
56720;SDS011;53183;47.412;18.884;2023-01-15T12:29:21;19.37;;;9.97;;
56720;SDS011;53183;47.412;18.884;2023-01-15T12:32:11;14.93;;;8.52;;
56720;SDS011;53183;47.412;18.884;2023-01-15T12:34:54;14.45;;;8.20;;
56720;SDS011;53183;47.412;18.884;2023-01-15T12:37:55;14.82;;;8.48;;
56720;SDS011;53183;47.412;18.884;2023-01-15T12:41:05;16.60;;;9.45;;
56720;SDS011;53183;47.412;18.884;2023-01-15T12:43:51;16.60;;;8.20;;
56720;SDS011;53183;47.412;18.884;2023-01-15T12:47:00;16.23;;;8.05;;
56720;SDS011;53183;47.412;18.884;2023-01-15T12:49:48;17.48;;;8.63;;
56720;SDS011;53183;47.412;18.884;2023-01-15T12:52:32;15.10;;;8.25;;
56720;SDS011;53183;47.412;18.884;2023-01-15T12:55:27;12.63;;;7.55;;
56720;SDS011;53183;47.412;18.884;2023-01-15T13:00:46;13.23;;;7.37;;
56720;SDS011;53183;47.412;18.884;2023-01-15T13:03:35;18.15;;;8.30;;
56720;SDS011;53183;47.412;18.884;2023-01-15T13:06:23;17.17;;;7.55;;
56720;SDS011;53183;47.412;18.884;2023-01-15T13:09:10;18.55;;;8.38;;
56720;SDS011;53183;47.412;18.884;2023-01-15T13:11:48;19.35;;;8.18;;
56720;SDS011;53183;47.412;18.884;2023-01-15T13:14:31;17.02;;;8.40;;
56720;SDS011;53183;47.412;18.884;2023-01-15T13:17:15;15.38;;;8.32;;
56720;SDS011;53183;47.412;18.884;2023-01-15T13:29:24;12.82;;;6.65;;
56720;SDS011;53183;47.412;18.884;2023-01-15T13:32:12;14.90;;;7.07;;
56720;SDS011;53183;47.412;18.884;2023-01-15T13:34:59;12.37;;;7.00;;
56720;SDS011;53183;47.412;18.884;2023-01-15T13:37:43;16.40;;;7.37;;
56720;SDS011;53183;47.412;18.884;2023-01-15T13:40:33;14.95;;;7.20;;
56720;SDS011;53183;47.412;18.884;2023-01-15T13:43:24;16.85;;;8.10;;
56720;SDS011;53183;47.412;18.884;2023-01-15T13:46:09;13.95;;;7.00;;
56720;SDS011;53183;47.412;18.884;2023-01-15T13:48:44;16.45;;;8.70;;
56720;SDS011;53183;47.412;18.884;2023-01-15T13:51:31;18.50;;;8.85;;
56720;SDS011;53183;47.412;18.884;2023-01-15T13:54:17;108.85;;;36.42;;
56720;SDS011;53183;47.412;18.884;2023-01-15T13:56:52;140.98;;;44.03;;
56720;SDS011;53183;47.412;18.884;2023-01-15T13:59:42;23.98;;;9.70;;
56720;SDS011;53183;47.412;18.884;2023-01-15T14:02:28;22.77;;;9.77;;
56720;SDS011;53183;47.412;18.884;2023-01-15T14:05:33;17.02;;;8.68;;
56720;SDS011;53183;47.412;18.884;2023-01-15T14:08:15;16.48;;;7.22;;
56720;SDS011;53183;47.412;18.884;2023-01-15T14:10:52;18.92;;;8.63;;
56720;SDS011;53183;47.412;18.884;2023-01-15T14:16:56;18.52;;;8.88;;
56720;SDS011;53183;47.412;18.884;2023-01-15T14:19:50;18.08;;;9.85;;
56720;SDS011;53183;47.412;18.884;2023-01-15T14:22:54;14.65;;;7.80;;
56720;SDS011;53183;47.412;18.884;2023-01-15T14:29:25;12.88;;;7.30;;
56720;SDS011;53183;47.412;18.884;2023-01-15T14:35:19;16.73;;;8.07;;
56720;SDS011;53183;47.412;18.884;2023-01-15T14:37:57;14.02;;;7.70;;
56720;SDS011;53183;47.412;18.884;2023-01-15T14:40:39;17.48;;;7.85;;
56720;SDS011;53183;47.412;18.884;2023-01-15T14:46:13;17.80;;;7.68;;
56720;SDS011;53183;47.412;18.884;2023-01-15T14:48:57;17.83;;;7.97;;
56720;SDS011;53183;47.412;18.884;2023-01-15T14:51:45;13.82;;;7.90;;
56720;SDS011;53183;47.412;18.884;2023-01-15T14:54:20;16.52;;;7.80;;
56720;SDS011;53183;47.412;18.884;2023-01-15T14:56:55;16.55;;;9.63;;
56720;SDS011;53183;47.412;18.884;2023-01-15T14:59:41;18.27;;;10.77;;
56720;SDS011;53183;47.412;18.884;2023-01-15T15:02:23;21.37;;;10.95;;
56720;SDS011;53183;47.412;18.884;2023-01-15T15:05:15;18.37;;;9.10;;
56720;SDS011;53183;47.412;18.884;2023-01-15T15:07:56;16.02;;;9.38;;
56720;SDS011;53183;47.412;18.884;2023-01-15T15:10:38;23.23;;;12.75;;
56720;SDS011;53183;47.412;18.884;2023-01-15T15:13:14;26.45;;;11.85;;
56720;SDS011;53183;47.412;18.884;2023-01-15T15:16:15;24.85;;;11.93;;
56720;SDS011;53183;47.412;18.884;2023-01-15T15:22:31;21.70;;;10.32;;
56720;SDS011;53183;47.412;18.884;2023-01-15T15:25:08;21.37;;;10.77;;
56720;SDS011;53183;47.412;18.884;2023-01-15T15:28:08;26.17;;;11.35;;
56720;SDS011;53183;47.412;18.884;2023-01-15T15:37:20;32.45;;;14.75;;
56720;SDS011;53183;47.412;18.884;2023-01-15T15:40:20;45.55;;;18.85;;
56720;SDS011;53183;47.412;18.884;2023-01-15T15:43:11;21.58;;;10.40;;
56720;SDS011;53183;47.412;18.884;2023-01-15T15:46:26;22.52;;;11.95;;
56720;SDS011;53183;47.412;18.884;2023-01-15T15:49:24;25.17;;;12.77;;
56720;SDS011;53183;47.412;18.884;2023-01-15T15:52:19;25.62;;;11.25;;
56720;SDS011;53183;47.412;18.884;2023-01-15T15:57:36;29.17;;;15.73;;
56720;SDS011;53183;47.412;18.884;2023-01-15T16:00:17;49.28;;;24.17;;
56720;SDS011;53183;47.412;18.884;2023-01-15T16:02:56;45.92;;;19.40;;
56720;SDS011;53183;47.412;18.884;2023-01-15T16:05:41;25.45;;;12.98;;
56720;SDS011;53183;47.412;18.884;2023-01-15T16:08:34;25.73;;;12.07;;
56720;SDS011;53183;47.412;18.884;2023-01-15T16:11:16;22.08;;;12.32;;
56720;SDS011;53183;47.412;18.884;2023-01-15T16:14:03;22.73;;;13.13;;
56720;SDS011;53183;47.412;18.884;2023-01-15T16:16:40;22.37;;;10.80;;
56720;SDS011;53183;47.412;18.884;2023-01-15T16:19:26;37.63;;;13.48;;
56720;SDS011;53183;47.412;18.884;2023-01-15T16:22:07;26.08;;;13.77;;
56720;SDS011;53183;47.412;18.884;2023-01-15T16:24:56;29.33;;;15.18;;
56720;SDS011;53183;47.412;18.884;2023-01-15T16:27:31;31.23;;;15.82;;
56720;SDS011;53183;47.412;18.884;2023-01-15T16:30:12;31.58;;;14.30;;
56720;SDS011;53183;47.412;18.884;2023-01-15T16:32:52;31.90;;;15.70;;
56720;SDS011;53183;47.412;18.884;2023-01-15T16:35:32;35.38;;;16.73;;
56720;SDS011;53183;47.412;18.884;2023-01-15T16:38:13;29.85;;;15.07;;
56720;SDS011;53183;47.412;18.884;2023-01-15T16:41:03;32.70;;;15.10;;
56720;SDS011;53183;47.412;18.884;2023-01-15T16:43:54;30.08;;;17.85;;
56720;SDS011;53183;47.412;18.884;2023-01-15T16:46:46;29.02;;;14.73;;
56720;SDS011;53183;47.412;18.884;2023-01-15T16:49:28;30.27;;;16.25;;
56720;SDS011;53183;47.412;18.884;2023-01-15T16:52:35;31.77;;;16.58;;
56720;SDS011;53183;47.412;18.884;2023-01-15T16:58:38;30.95;;;16.27;;
56720;SDS011;53183;47.412;18.884;2023-01-15T17:04:39;35.97;;;16.62;;
56720;SDS011;53183;47.412;18.884;2023-01-15T17:07:41;35.17;;;18.05;;
56720;SDS011;53183;47.412;18.884;2023-01-15T17:10:25;30.83;;;14.95;;
56720;SDS011;53183;47.412;18.884;2023-01-15T17:13:15;32.88;;;17.08;;
56720;SDS011;53183;47.412;18.884;2023-01-15T17:18:58;28.87;;;15.98;;
56720;SDS011;53183;47.412;18.884;2023-01-15T17:21:41;29.52;;;15.80;;
56720;SDS011;53183;47.412;18.884;2023-01-15T17:24:28;36.75;;;17.48;;
56720;SDS011;53183;47.412;18.884;2023-01-15T17:27:01;38.07;;;17.50;;
56720;SDS011;53183;47.412;18.884;2023-01-15T17:29:42;34.03;;;17.30;;
56720;SDS011;53183;47.412;18.884;2023-01-15T17:32:38;36.83;;;17.75;;
56720;SDS011;53183;47.412;18.884;2023-01-15T17:35:24;37.85;;;18.65;;